Time;durP1;ratioP1;P1;durP2;ratioP2;P2;SDS_P1;SDS_P2;PMS_P1;PMS_P2;Temp;Humidity;BMP_temperature;BMP_pressure;BME280_temperature;BME280_humidity;BME280_pressure;Samples;Min_cycle;Max_cycle;Signal;HPM_P1;HPM_P2
2021/08/05 03:36:23;;;;;;;16.40;15.57;;;15.90;99.90;;;;;;5812111;23;20768;-70
2021/08/05 03:38:50;;;;;;;15.40;14.17;;;15.90;99.90;;;;;;4969393;28;20480;-69
2021/08/05 03:41:17;;;;;;;16.47;15.50;;;15.90;99.90;;;;;;4972061;28;20455;-71
2021/08/05 03:43:43;;;;;;;16.80;15.90;;;15.90;99.90;;;;;;4971808;28;20978;-70
2021/08/05 03:46:10;;;;;;;16.20;15.40;;;15.90;99.90;;;;;;4971874;28;20455;-70
2021/08/05 03:48:37;;;;;;;15.93;15.13;;;15.90;99.90;;;;;;4971781;28;20513;-68
2021/08/05 03:51:05;;;;;;;14.97;14.27;;;16.00;99.90;;;;;;4962346;28;20481;-69
2021/08/05 03:53:33;;;;;;;15.57;14.77;;;16.00;99.90;;;;;;4959113;28;20849;-70
2021/08/05 03:56:00;;;;;;;15.50;14.70;;;16.00;99.90;;;;;;4954351;28;20483;-70
2021/08/05 03:58:27;;;;;;;15.60;14.77;;;16.00;99.90;;;;;;4961041;28;20484;-69
2021/08/05 04:00:53;;;;;;;14.70;14.00;;;16.00;99.90;;;;;;4952322;29;20464;-69
2021/08/05 04:03:20;;;;;;;16.07;14.90;;;16.00;99.90;;;;;;4952476;29;20479;-70
2021/08/05 04:05:47;;;;;;;15.60;14.60;;;16.00;99.90;;;;;;4952407;29;20816;-71
2021/08/05 04:08:14;;;;;;;15.57;14.67;;;16.00;99.90;;;;;;4952143;29;20456;-71
2021/08/05 04:10:42;;;;;;;16.10;15.20;;;16.00;99.90;;;;;;4952285;29;20924;-70
2021/08/05 04:13:09;;;;;;;17.63;16.33;;;16.00;99.90;;;;;;4952050;29;20488;-71
2021/08/05 04:15:35;;;;;;;17.40;16.50;;;16.00;99.90;;;;;;4952343;29;20457;-71
2021/08/05 04:18:02;;;;;;;16.83;15.83;;;16.00;99.90;;;;;;4952228;29;20479;-71
2021/08/05 04:20:29;;;;;;;15.93;14.93;;;16.00;99.90;;;;;;4952104;29;20472;-71
2021/08/05 04:22:55;;;;;;;16.80;15.83;;;16.00;99.90;;;;;;4954996;28;20479;-71
2021/08/05 04:25:22;;;;;;;17.40;16.50;;;16.00;99.90;;;;;;4966581;28;20510;-71
2021/08/05 04:27:50;;;;;;;17.17;16.17;;;16.10;99.90;;;;;;4967328;28;20861;-70
2021/08/05 04:30:17;;;;;;;18.27;16.87;;;16.10;99.90;;;;;;4971774;28;20464;-70
2021/08/05 04:32:44;;;;;;;17.30;16.40;;;16.20;99.90;;;;;;4971183;28;20855;-71
2021/08/05 04:35:12;;;;;;;16.80;15.80;;;16.30;99.90;;;;;;4971348;28;20911;-71
2021/08/05 04:37:47;;;;;;;16.50;15.60;;;16.40;99.90;;;;;;4970971;28;20483;-70
2021/08/05 04:40:14;;;;;;;16.80;15.80;;;16.50;99.90;;;;;;4959981;28;20503;-71
2021/08/05 04:42:41;;;;;;;16.60;15.70;;;16.60;99.90;;;;;;4951822;29;20500;-70
2021/08/05 04:45:11;;;;;;;17.90;16.80;;;16.60;99.90;;;;;;4951805;29;20452;-71
2021/08/05 04:47:50;;;;;;;17.20;16.20;;;16.70;99.90;;;;;;4953920;28;20460;-71
2021/08/05 04:50:17;;;;;;;16.50;15.20;;;16.80;99.90;;;;;;4956288;29;20999;-71
2021/08/05 04:52:44;;;;;;;16.13;15.23;;;16.90;99.90;;;;;;4960558;28;20503;-71
2021/08/05 04:55:11;;;;;;;17.40;16.40;;;16.90;99.90;;;;;;4975147;28;20459;-69
2021/08/05 04:57:46;;;;;;;17.03;15.77;;;16.90;99.90;;;;;;4970145;28;20490;-70
2021/08/05 05:00:15;;;;;;;15.90;14.97;;;17.00;99.90;;;;;;4969466;28;20458;-69
2021/08/05 05:02:42;;;;;;;16.80;15.50;;;17.00;99.90;;;;;;4974857;28;20881;-70
2021/08/05 05:05:09;;;;;;;16.23;15.23;;;17.20;99.90;;;;;;4974414;28;20524;-71
2021/08/05 05:07:36;;;;;;;16.43;15.53;;;17.20;99.90;;;;;;4974451;28;20875;-71
2021/08/05 05:10:03;;;;;;;17.27;16.20;;;17.30;99.90;;;;;;4974543;28;20539;-71
2021/08/05 05:12:30;;;;;;;17.67;16.30;;;17.30;99.90;;;;;;4974357;28;20597;-71
2021/08/05 05:14:57;;;;;;;16.57;15.03;;;17.40;99.90;;;;;;4974162;28;20466;-71
2021/08/05 05:17:25;;;;;;;17.30;16.10;;;17.50;99.90;;;;;;4974138;28;20454;-72
2021/08/05 05:19:52;;;;;;;16.60;15.53;;;17.60;99.90;;;;;;4974020;28;20443;-71
2021/08/05 05:22:18;;;;;;;17.70;16.57;;;17.80;99.90;;;;;;4974229;28;20535;-71
2021/08/05 05:24:45;;;;;;;17.47;16.57;;;17.80;99.90;;;;;;4974073;28;20462;-72
2021/08/05 05:27:12;;;;;;;16.67;15.80;;;17.80;99.90;;;;;;4974174;28;20463;-71
2021/08/05 05:29:40;;;;;;;16.13;15.13;;;17.70;99.90;;;;;;4973886;28;20922;-72
2021/08/05 05:32:07;;;;;;;17.50;15.90;;;17.70;99.90;;;;;;4973807;28;20462;-72
2021/08/05 05:34:36;;;;;;;17.70;16.70;;;17.70;99.90;;;;;;4973893;28;20451;-72
2021/08/05 05:37:03;;;;;;;16.67;15.40;;;17.60;99.90;;;;;;4973756;28;20487;-72
2021/08/05 05:39:30;;;;;;;15.07;14.17;;;17.60;99.90;;;;;;4973713;28;20439;-72
2021/08/05 05:41:56;;;;;;;14.60;13.67;;;17.60;99.90;;;;;;4973564;28;21097;-72
2021/08/05 05:44:23;;;;;;;15.80;15.00;;;17.70;99.90;;;;;;4973514;28;20863;-72
2021/08/05 05:46:51;;;;;;;16.20;15.17;;;17.90;99.90;;;;;;4973658;28;20451;-72
2021/08/05 05:49:17;;;;;;;16.43;15.23;;;17.90;99.90;;;;;;4973823;28;20519;-72
2021/08/05 05:51:45;;;;;;;15.20;14.27;;;18.00;99.90;;;;;;4973399;28;20541;-72
2021/08/05 05:54:12;;;;;;;16.50;15.70;;;18.10;99.90;;;;;;4973282;28;20486;-72
2021/08/05 05:56:39;;;;;;;17.03;16.03;;;18.20;99.90;;;;;;4973407;28;20451;-72
2021/08/05 05:59:06;;;;;;;16.73;15.80;;;18.30;99.90;;;;;;4972402;28;20455;-72
2021/08/05 06:01:34;;;;;;;16.03;15.27;;;18.40;99.90;;;;;;4973462;28;20455;-72
2021/08/05 06:04:01;;;;;;;16.77;15.67;;;18.60;99.90;;;;;;4973317;28;20541;-72
2021/08/05 06:06:28;;;;;;;15.63;14.23;;;18.60;99.90;;;;;;4973274;28;20455;-72
2021/08/05 06:08:56;;;;;;;15.57;14.37;;;18.50;99.90;;;;;;4973037;28;20613;-72
2021/08/05 06:11:26;;;;;;;17.33;16.17;;;18.50;99.90;;;;;;4973008;28;20487;-72
2021/08/05 06:13:53;;;;;;;18.17;17.00;;;18.60;99.90;;;;;;4973131;28;20898;-72
2021/08/05 06:16:20;;;;;;;16.70;15.80;;;18.90;99.90;;;;;;4973369;28;20791;-72
2021/08/05 06:18:47;;;;;;;15.40;14.60;;;19.20;99.90;;;;;;4973255;28;20452;-72
2021/08/05 06:21:14;;;;;;;16.17;15.07;;;19.90;99.90;;;;;;4972897;28;20460;-73
2021/08/05 06:23:40;;;;;;;15.17;14.40;;;20.30;99.90;;;;;;4972898;28;20939;-72
2021/08/05 06:26:08;;;;;;;15.93;14.77;;;20.70;99.90;;;;;;4972749;28;20458;-72
2021/08/05 06:28:36;;;;;;;16.50;15.60;;;21.40;99.90;;;;;;4972340;28;20455;-73
2021/08/05 06:31:04;;;;;;;15.90;15.00;;;21.80;99.90;;;;;;4972655;28;20584;-72
2021/08/05 06:33:31;;;;;;;15.27;14.10;;;22.20;99.90;;;;;;4972424;28;20483;-72
2021/08/05 06:35:58;;;;;;;16.03;15.30;;;22.50;99.90;;;;;;4972444;28;20912;-72
2021/08/05 06:38:24;;;;;;;16.60;15.40;;;22.70;99.90;;;;;;4972502;28;20519;-73
2021/08/05 06:40:51;;;;;;;15.67;14.87;;;23.20;99.90;;;;;;4972555;28;20455;-72
2021/08/05 06:43:19;;;;;;;14.33;13.63;;;23.20;99.90;;;;;;4972426;28;20459;-72
2021/08/05 06:45:46;;;;;;;14.97;14.07;;;23.10;99.90;;;;;;4972639;28;20823;-73
2021/08/05 06:48:12;;;;;;;14.77;13.87;;;23.30;99.90;;;;;;4972467;28;20510;-73
2021/08/05 06:50:39;;;;;;;15.13;14.43;;;23.40;99.90;;;;;;4972321;28;20455;-72
2021/08/05 06:53:06;;;;;;;14.17;13.37;;;23.50;99.90;;;;;;4972261;28;20514;-72
2021/08/05 06:55:32;;;;;;;14.03;13.33;;;23.50;99.90;;;;;;4972706;28;20534;-73
2021/08/05 06:57:59;;;;;;;15.63;14.33;;;24.30;99.90;;;;;;4972206;28;20460;-73
2021/08/05 07:00:27;;;;;;;14.53;13.93;;;25.00;99.90;;;;;;4972229;28;20455;-73
2021/08/05 07:02:54;;;;;;;16.80;15.70;;;25.50;99.90;;;;;;4972221;28;20458;-73
2021/08/05 07:05:21;;;;;;;16.47;15.20;;;25.20;99.90;;;;;;4972183;28;20463;-73
2021/08/05 07:07:50;;;;;;;15.00;14.10;;;24.60;99.90;;;;;;4972072;28;20455;-73
2021/08/05 07:10:16;;;;;;;15.43;14.40;;;24.10;99.90;;;;;;4972163;28;20455;-73
2021/08/05 07:12:43;;;;;;;14.87;13.97;;;23.90;99.90;;;;;;4971489;28;20455;-73
2021/08/05 07:15:11;;;;;;;15.90;15.00;;;23.70;99.90;;;;;;4971962;28;20452;-73
2021/08/05 07:17:44;;;;;;;15.10;14.30;;;23.70;99.90;;;;;;4971996;28;20460;-73
2021/08/05 07:20:11;;;;;;;15.70;14.80;;;24.20;99.90;;;;;;4972159;28;20636;-73
2021/08/05 07:22:38;;;;;;;15.83;14.90;;;24.70;99.90;;;;;;4971729;28;20452;-73
2021/08/05 07:25:06;;;;;;;14.93;14.17;;;24.70;99.90;;;;;;4972144;28;20939;-73
2021/08/05 07:27:33;;;;;;;15.40;14.17;;;24.70;99.90;;;;;;4972192;28;20475;-73
2021/08/05 07:29:59;;;;;;;15.27;14.47;;;24.50;99.90;;;;;;4971753;28;20447;-73
2021/08/05 07:32:26;;;;;;;15.07;14.17;;;24.50;99.90;;;;;;4971670;28;20510;-73
2021/08/05 07:34:54;;;;;;;14.97;14.20;;;24.40;99.90;;;;;;4971495;28;20561;-73
2021/08/05 07:37:21;;;;;;;15.00;14.10;;;24.50;99.90;;;;;;4971181;28;20487;-72
2021/08/05 07:39:47;;;;;;;13.80;13.20;;;24.00;99.90;;;;;;4971496;28;20451;-73
2021/08/05 07:42:15;;;;;;;14.30;13.50;;;23.70;99.90;;;;;;4971496;28;20448;-72
2021/08/05 07:44:42;;;;;;;13.43;12.73;;;23.50;99.90;;;;;;4971438;28;20550;-73
2021/08/05 07:47:09;;;;;;;14.23;13.40;;;23.50;99.90;;;;;;4971387;28;20876;-73
2021/08/05 07:49:36;;;;;;;14.20;13.20;;;23.60;99.90;;;;;;4971176;28;20463;-73
2021/08/05 07:52:05;;;;;;;13.17;12.37;;;23.70;99.90;;;;;;4971465;28;20514;-73
2021/08/05 07:54:32;;;;;;;15.10;14.20;;;23.90;99.90;;;;;;4971032;28;20515;-73
2021/08/05 07:56:59;;;;;;;13.70;13.20;;;24.00;99.90;;;;;;4970849;28;20519;-73
2021/08/05 07:59:26;;;;;;;16.13;14.90;;;24.30;99.90;;;;;;4971083;28;20455;-72
2021/08/05 08:01:53;;;;;;;13.07;12.37;;;24.10;99.90;;;;;;4971038;28;20451;-73
2021/08/05 08:04:20;;;;;;;13.60;13.07;;;24.40;99.90;;;;;;4971365;28;20455;-73
2021/08/05 08:06:46;;;;;;;14.73;13.73;;;24.70;99.90;;;;;;4971181;28;20459;-72
2021/08/05 08:09:14;;;;;;;14.53;13.83;;;24.60;99.90;;;;;;4970971;28;20452;-73
2021/08/05 08:11:41;;;;;;;13.07;12.47;;;24.40;99.90;;;;;;4970787;28;20447;-73
2021/08/05 08:14:08;;;;;;;13.83;13.23;;;24.40;99.90;;;;;;4970789;28;20499;-72
2021/08/05 08:16:39;;;;;;;14.07;13.40;;;24.10;99.90;;;;;;4971057;28;20459;-72
2021/08/05 08:19:06;;;;;;;14.30;13.50;;;23.80;99.90;;;;;;4971015;28;20514;-72
2021/08/05 08:21:33;;;;;;;14.10;13.50;;;23.80;99.90;;;;;;4970719;28;20448;-73
2021/08/05 08:23:59;;;;;;;13.70;13.20;;;24.20;99.90;;;;;;4970901;28;20978;-72
2021/08/05 08:26:27;;;;;;;14.40;13.80;;;24.50;99.90;;;;;;4970945;28;20554;-72
2021/08/05 08:28:54;;;;;;;13.70;13.10;;;24.60;99.90;;;;;;4970763;28;20947;-72
2021/08/05 08:31:21;;;;;;;14.17;13.40;;;24.40;99.90;;;;;;4970813;28;20460;-73
2021/08/05 08:33:47;;;;;;;14.17;13.57;;;24.10;99.90;;;;;;4970815;28;20491;-73
2021/08/05 08:36:14;;;;;;;14.37;13.67;;;23.70;99.90;;;;;;4970562;28;20468;-72
2021/08/05 08:38:43;;;;;;;14.43;13.63;;;23.20;99.90;;;;;;4970609;28;20495;-72
2021/08/05 08:41:12;;;;;;;14.00;13.40;;;22.80;99.90;;;;;;4970672;28;20690;-72
2021/08/05 08:43:40;;;;;;;13.77;13.17;;;22.90;99.90;;;;;;4970446;28;20455;-72
2021/08/05 08:46:09;;;;;;;13.83;13.33;;;23.10;99.90;;;;;;4970801;28;20458;-72
2021/08/05 08:48:40;;;;;;;14.30;13.50;;;23.00;99.90;;;;;;4971042;28;20873;-72
2021/08/05 08:51:08;;;;;;;15.33;14.20;;;22.90;99.90;;;;;;4970595;28;20506;-72
2021/08/05 08:53:37;;;;;;;13.67;13.07;;;22.80;99.90;;;;;;4970759;28;20478;-71
2021/08/05 08:56:06;;;;;;;15.40;14.40;;;23.00;99.90;;;;;;4970812;28;20459;-71
2021/08/05 08:58:33;;;;;;;13.67;13.10;;;23.10;99.90;;;;;;4970761;28;20459;-71
2021/08/05 09:01:01;;;;;;;13.97;13.27;;;23.40;99.90;;;;;;4970392;28;20452;-72
2021/08/05 09:03:28;;;;;;;14.30;13.60;;;23.80;99.90;;;;;;4970209;28;20444;-72
2021/08/05 09:05:55;;;;;;;14.33;13.70;;;24.20;99.90;;;;;;4970099;28;20452;-71
2021/08/05 09:08:22;;;;;;;14.30;13.60;;;24.70;99.80;;;;;;4970326;28;20464;-71
2021/08/05 09:10:48;;;;;;;13.97;13.27;;;25.30;99.20;;;;;;4970684;28;20861;-72
2021/08/05 09:13:16;;;;;;;14.70;14.00;;;26.00;97.20;;;;;;4970509;28;20439;-72
2021/08/05 09:15:46;;;;;;;14.30;13.60;;;26.50;95.90;;;;;;4970543;28;20444;-72
2021/08/05 09:18:31;;;;;;;13.70;13.13;;;25.90;96.20;;;;;;4970334;28;20951;-71
2021/08/05 09:21:11;;;;;;;13.77;13.17;;;25.70;96.90;;;;;;4970192;28;20514;-72
2021/08/05 09:23:49;;;;;;;14.20;13.50;;;25.80;97.10;;;;;;4970362;28;20485;-72
2021/08/05 09:26:33;;;;;;;14.50;13.80;;;26.30;96.90;;;;;;4970430;28;20451;-73
2021/08/05 09:29:11;;;;;;;14.97;14.20;;;27.40;94.40;;;;;;4970223;28;20802;-71
2021/08/05 09:31:45;;;;;;;13.80;13.20;;;27.80;92.70;;;;;;4970274;28;20454;-73
2021/08/05 09:34:14;;;;;;;14.60;14.00;;;27.80;92.70;;;;;;4971104;28;20487;-73
2021/08/05 09:36:42;;;;;;;15.37;14.57;;;27.90;91.60;;;;;;4973697;28;20476;-73
2021/08/05 09:39:23;;;;;;;14.87;13.87;;;27.70;92.00;;;;;;4973598;28;20451;-73
2021/08/05 09:41:58;;;;;;;14.63;14.13;;;28.40;90.30;;;;;;4973910;28;20522;-72
2021/08/05 09:44:26;;;;;;;15.00;14.40;;;28.10;89.80;;;;;;4973799;28;20443;-72
2021/08/05 09:47:05;;;;;;;13.97;13.47;;;28.70;89.60;;;;;;4973772;28;20650;-73
2021/08/05 09:49:34;;;;;;;14.87;14.27;;;29.90;85.70;;;;;;4973931;28;20456;-73
2021/08/05 09:52:02;;;;;;;14.07;13.57;;;30.20;84.20;;;;;;4973683;28;20478;-73
2021/08/05 09:54:40;;;;;;;15.10;14.50;;;31.60;78.80;;;;;;4973445;28;20858;-72
2021/08/05 09:57:07;;;;;;;14.40;13.90;;;31.40;78.50;;;;;;4973479;28;20455;-71
2021/08/05 09:59:34;;;;;;;14.10;13.60;;;30.30;80.40;;;;;;4973492;28;20845;-71
2021/08/05 10:02:05;;;;;;;15.07;14.50;;;29.40;81.40;;;;;;4973533;28;20452;-71
2021/08/05 10:04:34;;;;;;;14.40;13.90;;;29.30;82.90;;;;;;4973490;28;20458;-71
2021/08/05 10:07:06;;;;;;;14.40;13.90;;;29.60;82.60;;;;;;4973263;28;20456;-71
2021/08/05 10:09:33;;;;;;;14.87;13.97;;;29.70;81.60;;;;;;4973107;28;20452;-71
2021/08/05 10:12:19;;;;;;;14.03;13.43;;;29.50;81.90;;;;;;4973115;28;20463;-70
2021/08/05 10:14:49;;;;;;;14.83;14.03;;;29.00;83.20;;;;;;4973251;28;20487;-75
2021/08/05 10:17:17;;;;;;;14.50;13.97;;;28.10;87.00;;;;;;4973356;28;20860;-71
2021/08/05 10:19:47;;;;;;;14.27;13.63;;;28.70;86.70;;;;;;4973168;28;20591;-73
2021/08/05 10:22:16;;;;;;;13.77;13.20;;;30.30;81.60;;;;;;4973285;28;20815;-73
2021/08/05 10:24:45;;;;;;;15.03;14.43;;;31.10;77.40;;;;;;4972853;28;20451;-71
2021/08/05 10:27:14;;;;;;;14.80;14.30;;;30.70;76.80;;;;;;4972822;28;20467;-72
2021/08/05 10:29:43;;;;;;;13.97;13.47;;;30.50;78.10;;;;;;4972933;28;20510;-72
2021/08/05 10:32:13;;;;;;;14.13;13.43;;;30.70;77.80;;;;;;4972896;28;20463;-72
2021/08/05 10:34:40;;;;;;;14.10;13.40;;;30.90;76.00;;;;;;4972690;28;21110;-71
2021/08/05 10:37:11;;;;;;;14.70;14.00;;;30.30;77.40;;;;;;4972557;28;20483;-71
2021/08/05 10:39:39;;;;;;;14.37;13.77;;;30.10;77.50;;;;;;4972788;28;20812;-71
2021/08/05 10:42:08;;;;;;;13.40;12.80;;;29.90;77.40;;;;;;4972675;28;20455;-71
2021/08/05 10:44:36;;;;;;;14.30;13.90;;;30.00;77.40;;;;;;4972498;28;20964;-71
2021/08/05 10:47:04;;;;;;;13.40;12.93;;;29.90;76.50;;;;;;4972904;28;20460;-72
2021/08/05 10:49:33;;;;;;;13.17;12.77;;;29.90;76.00;;;;;;4972872;28;20459;-72
2021/08/05 10:51:59;;;;;;;14.00;13.30;;;29.20;77.10;;;;;;4972449;28;20451;-71
2021/08/05 10:54:50;;;;;;;13.50;13.00;;;29.10;78.30;;;;;;4972352;28;20491;-72
2021/08/05 10:57:19;;;;;;;13.97;13.47;;;29.60;77.90;;;;;;4972649;28;20487;-71
2021/08/05 11:00:00;;;;;;;13.87;13.20;;;30.10;75.60;;;;;;4972291;28;20456;-71
2021/08/05 11:02:47;;;;;;;13.40;12.90;;;31.00;72.90;;;;;;4972339;28;20824;-72
2021/08/05 11:05:42;;;;;;;14.03;13.43;;;32.20;71.00;;;;;;4972254;28;20470;-71
2021/08/05 11:08:26;;;;;;;14.10;13.60;;;33.20;67.50;;;;;;4972216;28;20463;-72
2021/08/05 11:11:26;;;;;;;12.70;12.30;;;33.00;66.80;;;;;;4972188;28;20455;-72
2021/08/05 11:14:35;;;;;;;14.00;13.40;;;31.60;69.00;;;;;;4972188;28;20919;-72
2021/08/05 11:17:04;;;;;;;14.17;13.40;;;31.20;70.60;;;;;;4972241;28;20490;-72
2021/08/05 11:19:33;;;;;;;13.03;12.63;;;30.80;70.70;;;;;;4972221;28;20447;-73
2021/08/05 11:22:50;;;;;;;14.03;13.53;;;30.20;73.30;;;;;;4972110;28;20454;-72
2021/08/05 11:25:17;;;;;;;13.23;12.83;;;29.80;72.50;;;;;;4972560;28;20444;-73
2021/08/05 11:28:23;;;;;;;12.10;11.70;;;29.30;75.20;;;;;;4971916;28;20455;-72
2021/08/05 11:30:55;;;;;;;13.50;13.10;;;28.90;76.80;;;;;;4972379;28;20482;-72
2021/08/05 11:33:59;;;;;;;12.50;12.10;;;28.50;77.70;;;;;;4971688;28;20448;-72
2021/08/05 11:36:33;;;;;;;13.80;13.30;;;28.70;78.30;;;;;;4971705;28;20866;-72
2021/08/05 11:39:09;;;;;;;13.70;13.20;;;30.10;74.50;;;;;;4971516;28;20522;-72
2021/08/05 11:41:54;;;;;;;13.97;13.47;;;31.00;73.70;;;;;;4971700;28;20451;-72
2021/08/05 11:44:33;;;;;;;14.60;14.10;;;33.10;68.80;;;;;;4971813;28;20444;-73
2021/08/05 11:47:12;;;;;;;14.40;13.80;;;34.20;64.40;;;;;;4971677;28;20447;-73
2021/08/05 11:49:40;;;;;;;14.57;13.97;;;35.00;60.80;;;;;;4971588;28;20455;-73
2021/08/05 11:52:13;;;;;;;13.97;13.50;;;35.10;59.60;;;;;;4971425;28;20459;-73
2021/08/05 11:54:41;;;;;;;13.50;13.00;;;34.70;58.90;;;;;;4971343;28;20812;-72
2021/08/05 11:57:10;;;;;;;14.00;13.47;;;32.90;61.20;;;;;;4970658;28;20456;-72
2021/08/05 11:59:38;;;;;;;13.10;12.70;;;31.80;63.60;;;;;;4971465;28;20451;-72
2021/08/05 12:02:10;;;;;;;12.60;12.20;;;31.20;67.00;;;;;;4971422;28;20451;-72
2021/08/05 12:04:37;;;;;;;13.10;12.70;;;31.00;66.50;;;;;;4971342;28;20471;-72
2021/08/05 12:07:19;;;;;;;13.43;13.03;;;30.70;69.00;;;;;;4971388;28;20455;-72
2021/08/05 12:09:50;;;;;;;12.97;12.57;;;31.00;68.80;;;;;;4971237;28;20871;-72
2021/08/05 12:12:17;;;;;;;12.90;12.50;;;30.70;69.30;;;;;;4971399;28;20470;-72
2021/08/05 12:14:48;;;;;;;13.60;13.10;;;31.20;69.40;;;;;;4970917;28;20502;-72
2021/08/05 12:17:15;;;;;;;14.20;13.77;;;32.10;67.60;;;;;;4970993;28;20503;-72
2021/08/05 12:19:49;;;;;;;13.53;12.87;;;32.30;67.80;;;;;;4970865;28;20452;-72
2021/08/05 12:22:17;;;;;;;12.97;12.57;;;32.50;66.00;;;;;;4971045;28;20458;-71
2021/08/05 12:24:50;;;;;;;13.03;12.60;;;33.40;63.90;;;;;;4970801;28;20455;-71
2021/08/05 12:27:19;;;;;;;15.50;14.90;;;34.70;60.80;;;;;;4971155;28;20559;-71
2021/08/05 12:30:00;;;;;;;14.40;13.80;;;34.70;59.00;;;;;;4970816;28;20918;-71
2021/08/05 12:32:27;;;;;;;14.33;13.83;;;33.30;61.00;;;;;;4970756;28;20455;-71
2021/08/05 12:34:53;;;;;;;14.03;13.53;;;32.70;64.00;;;;;;4970440;28;20498;-71
2021/08/05 12:37:22;;;;;;;13.57;13.17;;;32.50;64.50;;;;;;4970626;28;21026;-71
2021/08/05 12:39:49;;;;;;;13.73;13.13;;;31.60;65.80;;;;;;4971064;28;20460;-71
2021/08/05 12:42:17;;;;;;;12.67;12.17;;;30.80;67.80;;;;;;4970844;28;20452;-71
2021/08/05 12:44:45;;;;;;;14.20;13.20;;;30.20;70.20;;;;;;4970532;28;20462;-72
2021/08/05 12:47:13;;;;;;;14.43;13.83;;;30.40;68.90;;;;;;4970696;28;20553;-72
2021/08/05 12:49:42;;;;;;;13.37;12.70;;;30.20;69.20;;;;;;4970679;28;20463;-72
2021/08/05 12:52:10;;;;;;;12.50;12.00;;;30.20;70.10;;;;;;4970501;28;20459;-72
2021/08/05 12:54:39;;;;;;;13.03;12.57;;;29.60;70.50;;;;;;4970479;28;20542;-71
2021/08/05 12:57:13;;;;;;;13.37;12.87;;;29.40;72.50;;;;;;4970649;28;20895;-71
2021/08/05 12:59:45;;;;;;;12.70;12.03;;;28.90;72.70;;;;;;4970737;28;20458;-72
2021/08/05 13:02:13;;;;;;;13.50;13.00;;;28.30;74.10;;;;;;4970456;28;20481;-71
2021/08/05 13:04:40;;;;;;;14.23;13.50;;;28.50;74.20;;;;;;4970315;28;20447;-71
2021/08/05 13:07:08;;;;;;;14.10;13.50;;;28.20;77.90;;;;;;4970509;28;20443;-72
2021/08/05 13:09:35;;;;;;;14.17;13.67;;;27.50;84.30;;;;;;4973878;28;20452;-71
2021/08/05 13:12:21;;;;;;;14.20;13.70;;;26.80;92.20;;;;;;4974661;28;20451;-72
2021/08/05 13:14:47;;;;;;;12.50;11.90;;;26.20;91.50;;;;;;4974422;28;20546;-71
2021/08/05 13:17:16;;;;;;;12.70;12.30;;;25.90;93.70;;;;;;4974275;28;20451;-71
2021/08/05 13:19:55;;;;;;;12.93;12.43;;;25.60;92.90;;;;;;4974129;28;20935;-71
2021/08/05 13:22:34;;;;;;;11.40;11.00;;;25.40;92.40;;;;;;4974511;28;20874;-71
2021/08/05 13:25:03;;;;;;;13.50;13.00;;;25.40;93.30;;;;;;4974251;28;20891;-70
2021/08/05 13:27:32;;;;;;;16.20;15.40;;;25.20;96.30;;;;;;4973963;28;20463;-71
2021/08/05 13:29:59;;;;;;;19.53;18.57;;;24.80;98.10;;;;;;4973823;28;20475;-72
2021/08/05 13:32:26;;;;;;;17.00;16.40;;;24.40;99.90;;;;;;4973640;28;20490;-72
2021/08/05 13:35:06;;;;;;;17.40;16.80;;;23.70;99.90;;;;;;4973315;28;20503;-71
2021/08/05 13:37:34;;;;;;;18.10;17.40;;;23.50;99.90;;;;;;4973753;28;20852;-72
2021/08/05 13:40:03;;;;;;;16.90;16.13;;;23.40;99.90;;;;;;4973830;28;20567;-71
2021/08/05 13:42:32;;;;;;;16.80;16.20;;;23.40;99.90;;;;;;4973618;28;20459;-72
2021/08/05 13:44:59;;;;;;;17.00;16.40;;;23.70;99.90;;;;;;4973654;28;20454;-72
2021/08/05 13:47:25;;;;;;;15.80;15.20;;;24.00;99.90;;;;;;4973687;28;20455;-71
2021/08/05 13:49:52;;;;;;;14.30;13.80;;;24.30;99.90;;;;;;4973348;28;21014;-71
2021/08/05 13:52:19;;;;;;;14.00;13.50;;;24.60;99.90;;;;;;4973755;28;20455;-71
2021/08/05 13:54:46;;;;;;;14.30;13.80;;;25.30;99.90;;;;;;4973647;28;20813;-71
2021/08/05 13:57:13;;;;;;;14.20;13.70;;;25.70;99.90;;;;;;4973362;28;20444;-72
2021/08/05 13:59:41;;;;;;;13.73;13.23;;;26.70;99.90;;;;;;4973339;28;20721;-72
2021/08/05 14:02:08;;;;;;;13.37;12.97;;;27.50;97.70;;;;;;4973314;28;20451;-72
2021/08/05 14:04:35;;;;;;;13.30;12.90;;;27.70;98.00;;;;;;4973099;28;20463;-72
2021/08/05 14:07:02;;;;;;;13.37;12.87;;;27.60;95.60;;;;;;4973454;28;20445;-73
2021/08/05 14:09:28;;;;;;;13.33;12.73;;;27.50;95.70;;;;;;4973205;28;20447;-72
2021/08/05 14:11:55;;;;;;;13.00;12.60;;;27.10;96.40;;;;;;4973267;28;20452;-72
2021/08/05 14:14:22;;;;;;;13.40;12.80;;;26.50;96.20;;;;;;4973239;28;20451;-73
2021/08/05 14:16:50;;;;;;;13.73;13.27;;;26.40;97.40;;;;;;4973148;28;20849;-72
2021/08/05 14:19:18;;;;;;;12.70;12.30;;;26.40;96.80;;;;;;4972898;28;20874;-72
2021/08/05 14:21:47;;;;;;;12.07;11.67;;;26.40;96.70;;;;;;4972979;28;20456;-72
2021/08/05 14:24:15;;;;;;;12.10;11.70;;;26.40;95.80;;;;;;4973007;28;20944;-72
2021/08/05 14:26:42;;;;;;;12.40;12.00;;;26.40;95.30;;;;;;4972905;28;20723;-72
2021/08/05 14:29:09;;;;;;;12.60;12.20;;;26.50;94.90;;;;;;4973003;28;20456;-72
2021/08/05 14:31:36;;;;;;;12.60;12.20;;;26.60;95.10;;;;;;4973186;28;20515;-71
2021/08/05 14:34:04;;;;;;;13.30;12.60;;;26.50;94.60;;;;;;4973068;28;20460;-71
2021/08/05 14:36:32;;;;;;;12.83;12.43;;;26.30;94.40;;;;;;4972895;28;20503;-71
2021/08/05 14:38:58;;;;;;;12.70;12.10;;;26.10;94.80;;;;;;4972567;28;20487;-72
2021/08/05 14:41:25;;;;;;;12.73;12.23;;;26.10;95.30;;;;;;4972650;28;20466;-72
2021/08/05 14:43:52;;;;;;;12.80;12.40;;;26.40;93.00;;;;;;4972641;28;20506;-71
2021/08/05 14:46:19;;;;;;;12.63;12.23;;;26.20;93.10;;;;;;4972801;28;20494;-71
2021/08/05 14:48:46;;;;;;;12.73;11.80;;;25.90;93.30;;;;;;4972675;28;20514;-71
2021/08/05 14:51:14;;;;;;;11.80;11.30;;;25.90;94.90;;;;;;4972555;28;20455;-71
2021/08/05 14:53:41;;;;;;;12.60;12.20;;;26.00;94.60;;;;;;4972367;28;20466;-71
2021/08/05 14:56:07;;;;;;;12.53;12.10;;;26.30;93.80;;;;;;4972411;28;20514;-71
2021/08/05 14:58:34;;;;;;;12.60;12.20;;;26.40;93.70;;;;;;4972715;28;20455;-72
2021/08/05 15:01:02;;;;;;;12.80;12.40;;;26.60;93.10;;;;;;4972413;28;20982;-72
2021/08/05 15:03:30;;;;;;;12.73;12.30;;;26.90;93.20;;;;;;4972160;28;20486;-71
2021/08/05 15:06:01;;;;;;;12.87;12.33;;;26.90;92.90;;;;;;4972132;28;20475;-71
2021/08/05 15:08:29;;;;;;;12.73;12.33;;;26.80;93.00;;;;;;4972107;28;20490;-72
2021/08/05 15:10:55;;;;;;;11.67;11.37;;;26.40;93.70;;;;;;4972000;28;20800;-71
2021/08/05 15:13:22;;;;;;;12.10;11.70;;;26.40;94.40;;;;;;4971924;28;20939;-71
2021/08/05 15:15:49;;;;;;;12.20;11.70;;;26.30;95.00;;;;;;4972193;28;20487;-71
2021/08/05 15:18:16;;;;;;;12.20;11.80;;;26.00;95.10;;;;;;4971813;28;20446;-72
2021/08/05 15:20:42;;;;;;;11.63;11.23;;;25.60;95.70;;;;;;4971900;28;20456;-72
2021/08/05 15:23:09;;;;;;;12.33;11.90;;;25.20;97.00;;;;;;4971599;28;20452;-71
2021/08/05 15:25:37;;;;;;;12.37;11.87;;;25.00;97.80;;;;;;4971896;28;20456;-72
2021/08/05 15:28:05;;;;;;;12.50;11.90;;;24.80;98.10;;;;;;4972005;28;20456;-71
2021/08/05 15:30:31;;;;;;;12.17;11.67;;;24.60;98.60;;;;;;4971860;28;20459;-72
2021/08/05 15:32:58;;;;;;;11.40;11.00;;;24.50;98.20;;;;;;4970533;28;20455;-72
2021/08/05 15:35:25;;;;;;;12.77;12.27;;;24.50;98.30;;;;;;4971437;28;20898;-71
2021/08/05 15:37:51;;;;;;;12.03;11.53;;;24.40;97.70;;;;;;4971553;28;20491;-72
2021/08/05 15:40:19;;;;;;;12.33;11.70;;;24.00;97.80;;;;;;4972029;28;20613;-71
2021/08/05 15:42:48;;;;;;;12.17;11.67;;;23.30;99.90;;;;;;4971571;28;20466;-72
2021/08/05 15:45:14;;;;;;;11.57;11.17;;;23.10;99.90;;;;;;4971482;28;20455;-72
2021/08/05 15:47:41;;;;;;;12.30;11.90;;;23.00;99.90;;;;;;4971736;28;20456;-71
2021/08/05 15:50:08;;;;;;;12.27;11.77;;;22.80;99.90;;;;;;4971438;28;20452;-71
2021/08/05 15:52:35;;;;;;;11.80;11.40;;;22.40;99.90;;;;;;4971453;28;20454;-71
2021/08/05 15:55:02;;;;;;;12.03;11.63;;;22.10;99.90;;;;;;4971621;28;20456;-72
2021/08/05 15:57:28;;;;;;;11.53;11.13;;;21.90;99.90;;;;;;4971175;28;20491;-71
2021/08/05 15:59:57;;;;;;;11.80;11.40;;;22.00;99.90;;;;;;4971480;28;20843;-71
2021/08/05 16:02:23;;;;;;;11.47;10.83;;;22.00;99.90;;;;;;4971176;28;20795;-72
2021/08/05 16:04:50;;;;;;;11.77;11.37;;;22.10;99.90;;;;;;4971382;28;20861;-72
2021/08/05 16:07:17;;;;;;;12.83;12.33;;;22.00;99.90;;;;;;4971254;28;20481;-71
2021/08/05 16:09:44;;;;;;;12.37;11.97;;;22.00;99.90;;;;;;4971130;28;20467;-71
2021/08/05 16:12:11;;;;;;;12.70;12.30;;;21.70;99.90;;;;;;4971015;28;20514;-71
2021/08/05 16:14:37;;;;;;;13.10;12.60;;;21.30;99.90;;;;;;4971137;28;20888;-71